Scratch — MKXQ6 — position and weather

sailwx.info

Track history (hours):
 
Tides and Currents Weather Stations Pressure Air Temp Water Temp Dewpoint Dewpoint Depression Visibility Wind Speed Wind Dir Waves Ship Positions

Scratch

Last reported at 2016-Jul-26 07:30 UTC. Time now 2016-Jul-27 19:11 UTC.
Position N 43°31' E 006°57'.

Length 27 m; draft 2 m.

MMSI: 235031887.

Date/timePositionNaut miles runAvg speedWind from/ knotsBaromVisibWave heightAir tempDewpointWater temp
2016-Jul-26 07:30N 43°31' E 006°57'0 0.0
2016-Jul-25 20:08N 43°31' E 006°57'0 0.0
2016-Jul-25 19:20N 43°31' E 006°57'0 0.0
2016-Jul-25 17:19N 43°31' E 006°57'0 0.0
2016-Jul-25 12:10N 43°31' E 006°57'0 0.0
2016-Jul-25 06:23N 43°31' E 006°57'0 0.0
2016-Jul-23 02:28N 43°31' E 006°57'0 0.0
2016-Jul-22 23:18N 43°31' E 006°57'0 0.0
2016-Jul-22 22:28N 43°31' E 006°57'0 0.0
2016-Jul-22 21:31N 43°31' E 006°57'0 0.0
2016-Jul-22 20:05N 43°31' E 006°57'0 0.0
2016-Jul-22 12:26N 43°31' E 006°57'0 0.0
2016-Jul-22 11:23N 43°31' E 006°57'0 0.0
2016-Jul-22 10:21N 43°31' E 006°57'0 0.0
2016-Jul-22 09:33N 43°31' E 006°57'0 0.0
2016-Jul-22 08:16N 43°31' E 006°57'0 0.0
2016-Jul-22 04:13N 43°31' E 006°57'0 0.0
2016-Jul-22 03:32N 43°31' E 006°57'0 0.0
2016-Jul-22 02:32N 43°31' E 006°57'0 0.0
2016-Jul-21 15:28N 43°31' E 006°57'7 0.2
2016-Jul-19 18:33N 43°32' E 007°07'8 5.8
2016-Jul-19 17:13N 43°39' E 007°12'10 3.8
2016-Jul-19 14:32N 43°31' E 007°03'1 0.3
2016-Jul-19 10:33N 43°32' E 007°03'3 1.0
2016-Jul-19 07:27N 43°30' E 007°00'  
Track history (hours):
 
Tides and Currents Weather Stations Pressure Air Temp Water Temp Dewpoint Dewpoint Depression Visibility Wind Speed Wind Dir Waves Ship Positions

Scratch

Last reported at 2016-Jul-26 07:30 UTC. Time now 2016-Jul-27 19:11 UTC.
Position N 43°31' E 006°57'.

Length 27 m; draft 2 m.

MMSI: 235031887.

Date/timePositionNaut miles runAvg speedWind from/ knotsBaromVisibWave heightAir tempDewpointWater temp
2016-Jul-26 07:30N 43°31' E 006°57'0 0.0
2016-Jul-25 20:08N 43°31' E 006°57'0 0.0
2016-Jul-25 19:20N 43°31' E 006°57'0 0.0
2016-Jul-25 17:19N 43°31' E 006°57'0 0.0
2016-Jul-25 12:10N 43°31' E 006°57'0 0.0
2016-Jul-25 06:23N 43°31' E 006°57'0 0.0
2016-Jul-23 02:28N 43°31' E 006°57'0 0.0
2016-Jul-22 23:18N 43°31' E 006°57'0 0.0
2016-Jul-22 22:28N 43°31' E 006°57'0 0.0
2016-Jul-22 21:31N 43°31' E 006°57'0 0.0
2016-Jul-22 20:05N 43°31' E 006°57'0 0.0
2016-Jul-22 12:26N 43°31' E 006°57'0 0.0
2016-Jul-22 11:23N 43°31' E 006°57'0 0.0
2016-Jul-22 10:21N 43°31' E 006°57'0 0.0
2016-Jul-22 09:33N 43°31' E 006°57'0 0.0
2016-Jul-22 08:16N 43°31' E 006°57'0 0.0
2016-Jul-22 04:13N 43°31' E 006°57'0 0.0
2016-Jul-22 03:32N 43°31' E 006°57'0 0.0
2016-Jul-22 02:32N 43°31' E 006°57'0 0.0
2016-Jul-21 15:28N 43°31' E 006°57'7 0.2
2016-Jul-19 18:33N 43°32' E 007°07'8 5.8
2016-Jul-19 17:13N 43°39' E 007°12'10 3.8
2016-Jul-19 14:32N 43°31' E 007°03'1 0.3
2016-Jul-19 10:33N 43°32' E 007°03'3 1.0
2016-Jul-19 07:27N 43°30' E 007°00'  

Dump ship's entire track history